Wednesday, March 04, 2015
18:48 UTC
  |  Log In   |  Register Free
Airport Search:

John F Kennedy Memorial Airport
(KASX)

John F Kennedy Memorial Airport Diagram
No Airport Diagram Available

FAA data valid effective January 08, 2015 - March 05, 2015 (unless otherwise noted).

 
 
 
 
 
 
 
 
 
 
 
 
 
 

Current Aviation Weather for John F Kennedy Memorial Airport (KASX)

The most recent METAR observation for KASX was updated at: 1808
METAR Summary (Translated METAR)
KASX
041753Z AUTO 26013G19KT 10SM BKN033 BKN041 BKN049 M15/M24 A3013 RMK AO2 SLP225 T11501239 11150 21206 53007
KIWD
041755Z AUTO 29014G19KT 10SM FEW028 BKN037 BKN043 M17/ A3003 RMK AO1 11170 21200 52014
(32.6 nm SE from KASX)
KHYR
041753Z AUTO VRB06G17KT 7SM FEW018 BKN027 OVC038 M16/M23 A3011 RMK AO2 SLP230 T11611233 11161 21206 53012
(38.2 nm SW from KASX)
TAF Summary (Translated TAF)
KIWD
(32.6 nm SE from KASX)
041736Z 0418/0518 28014G21KT 6SM BLSN VCSH BKN030 FM042000 29014G21KT 6SM -SHSN BKN025 FM042300 29011G16KT 3SM -SHSN BKN025 FM050200 29006KT 3SM -SHSN BKN025 FM050700 28005KT 6SM -SHSN BKN020 FM051100 26005KT P6SM SCT035 AMD LTD TO CLD VIS AND WIND
KHYR
(38.2 nm SW from KASX)
041739Z 0418/0518 28009G18KT P6SM OVC030 FM050000 00000KT P6SM FEW035 FM050700 27005KT P6SM SKC
  Airport Weather Conditions for KASX

 Current Weather at ASX
5° F
Mostly Cloudy
West winds at 15.0 mph
ASX NOAA Radar

Pressure: 30.13 in
Humidity: 47%
Wind: from the West at 15.0 gusting to 21.9 MPH (13 gusting to 19 KT)
Dew Point: -11.0°F
Visibility: 10.00 mi


Airport Weather Forecast for KASX

Translated METAR and TAF for KASX
Translated METAR for KASX (1847 UTC 04 March 2015)
found at http://aviationweather.gov/adds/metars/
 
METAR text: KASX 041753Z AUTO 26013G19KT 10SM BKN033 BKN041 BKN049 M15/M24 A3013 RMK AO2 SLP225 T11501239 11150 21206 53007
Conditions at: KASX (ASHLAND , WI, US) observed 1753 UTC 04 March 2015
Temperature: -15.0°C (5°F)
Dewpoint: -23.9°C (-11°F) [RH = 47%]
Pressure (altimeter): 30.13 inches Hg (1020.4 mb)
[Sea-level pressure: 1022.5 mb]
Winds: from the W (260 degrees) at 15 MPH (13 knots; 6.8 m/s)
gusting to 22 MPH (19 knots; 9.9 m/s)
Visibility: 10 or more miles (16+ km)
Ceiling: 3300 feet AGL
Clouds: broken clouds at 3300 feet AGL
broken clouds at 4100 feet AGL
broken clouds at 4900 feet AGL
Weather: automated observation with no human augmentation;
there may or may not be significant weather present at this time
Translated TAF for KASX

There is no translated TAF available for this airport

Find All Airport Services Find A Hotel Find A Rental Car Find A Golf Course Find A Restaurant $100 Hamburger



FBO's on the Field
FBO Company Facility Photos Services Transportation Aviation Fuel Prices: Prices include tax
Catering Weather Repair Courtesy Rental Type 100LL JetA JetA+ MOGAS 8087
 
John F Kennedy Memorial Airport

This FBO has not yet been rated
FS:Phillips 66
Last Updated: Feb-13
Login to update fuel prices
SS:
Contact John F Kennedy Memorial AirportMore FBO Information
 
Add another FBO Facility Photos Catering Weather Repair Courtesy Rental Type 100LL JetA JetA+ MOGAS 8087
Services Transportation Aviation Fuel Prices: Prices include tax


model-print
model-print
model-print
model-print